Pagina principale
METAR-TAF:

METAR-TAF

Aeroporti :

Aeroporto di Firenze-Peretola

Firenze, Italia

latitudine: 43-48N, longitudine: 011-12E, altezza: 40 m

Osservazione

Il bollettino è stato emesso 32 minuti fa, alle 05:20 UTC
Vento 1 kt da nord-ovest
Temperature 11°C
Umidità 94%
Pressione 1012 hPa
Visibilità 10 km o più
Nubi sparse ad un'altezza di 3000 ft
Nuvoloso ad un'altezza di 6000 ft

METAR: LIRQ 210520Z 31001KT 9999 SCT030 BKN060 11/10 Q1012

Ora: 06:52 (05:52 UTC)

Previsione

Il bollettino è stato emesso 52 minuti fa, alle 05:00 UTC
Previsione valida dal 21 alle 06 UTC al 22 alle 06 UTC
Vento 6 kt da direzioni variabili
Visibilità: 7000 m
Nubi sparse ad un'altezza di 3000 ft

TAF: LIRQ 210500Z 2106/2206 VRB06KT 7000 SCT030

Osservazioni e previsioni meteorologiche di più di 4000 aeroporti (messaggi METAR e TAF).

Le stazioni disponibili sono rappresentate dai dischi gialli e rossi sulla carta.

Puntare il mouse per vedere il nome della stazione.

Clicca sopra per visualizzare le osservazioni e previsioni meteorologiche.

Per cambiare la mappa : fare clic sui pulsanti verdi con una croce nera per ingrandire, il pulsante verde con un trattino per diminuire, o sulla freccia verde per le mappe adiacenti.


METAR-TAF: